« 令和2年中新川郡消防出初式 舟橋村・立山町・上市町 2020/1/5 sun | トップページ | 定点 富山空港 2020/1/8 wed »

2020/01/06

撮初 富山空港 2020/1/5 sun

新年あけましておめでとうございます。消防出初式からの流れで、本年初めての定点撮影です。

RJNT 050200Z 28005KT 240V320 9999 -SHRA FEW010 SCT030 BKN070 06/01 Q1027

20200105_rjnt_00ja6768

撮初は、富山県消防防災へり「とやま」さん

20200105_rjnt_01b18661

CAL170 RCTP-RJNT B-18661 B737-8AL

20200105_rjnt_02ja88an

ANA1181 RJNT-RJCC JA88AN B737-8AL

RJNT 050300Z VRB03KT 9999 -SHRA FEW010 SCT030 BKN070 07/01 Q1026

20200105_rjnt_03b18661

CAL171 RJNT-RCTP B-18661 B737-8AL

RJNT 050500Z 33003KT 9999 -SHRA FEW015 SCT025 BKN050 05/02 Q1027

20200105_rjnt_04ja6768

14時を回って、この日最後の出初式に参加のため離陸準備

20200105_rjnt_05ja6768

乗り込みぃぃ

20200105_rjnt_06ja6768

JA6768 B412B 富山県消防防災

RJNT 050600Z 25006KT 9999 -SHRA FEW015 BKN040 BKN070 05/01 Q1028

20200105_rjnt_07ja6768

小一時間で帰還

20200105_rjnt_08ja6768

6768ラストイヤー 最後まで活躍を祈ります。

20200105_rjnt_09ja6768

庫中には、新「とやま」君も控えています。

|

« 令和2年中新川郡消防出初式 舟橋村・立山町・上市町 2020/1/5 sun | トップページ | 定点 富山空港 2020/1/8 wed »

富山空港」カテゴリの記事

コメント

コメントを書く



(ウェブ上には掲載しません)


コメントは記事投稿者が公開するまで表示されません。



« 令和2年中新川郡消防出初式 舟橋村・立山町・上市町 2020/1/5 sun | トップページ | 定点 富山空港 2020/1/8 wed »